Time;durP1;ratioP1;P1;durP2;ratioP2;P2;SDS_P1;SDS_P2;PMS_P1;PMS_P2;Temp;Humidity;BMP_temperature;BMP_pressure;BME280_temperature;BME280_humidity;BME280_pressure;Samples;Min_cycle;Max_cycle;Signal;HPM_P1;HPM_P2
2023/01/30 00:01:17;;;;;;;10.10;6.30;;;;;;;-2.61;68.19;99697.05;105584;1254;62905;-72
2023/01/30 00:03:45;;;;;;;9.00;6.60;;;;;;;-2.45;67.98;99694.77;105657;1257;59590;-72
2023/01/30 00:06:14;;;;;;;10.90;7.20;;;;;;;-2.41;67.78;99689.34;105547;1257;73491;-71
2023/01/30 00:08:42;;;;;;;12.30;7.70;;;;;;;-2.42;67.64;99694.44;105590;1254;71551;-74
2023/01/30 00:11:15;;;;;;;14.20;8.00;;;;;;;-2.46;67.56;99696.54;105682;1254;71252;-71
2023/01/30 00:13:44;;;;;;;12.50;7.80;;;;;;;-2.48;67.56;99697.39;106959;1257;60452;-73
2023/01/30 00:16:12;;;;;;;10.70;6.90;;;;;;;-2.50;67.49;99689.00;108799;1255;59999;-74
2023/01/30 00:18:48;;;;;;;10.90;7.30;;;;;;;-2.52;67.65;99688.40;108939;1254;71398;-73
2023/01/30 00:21:16;;;;;;;9.80;7.10;;;;;;;-2.52;67.80;99689.63;109201;1254;70059;-73
2023/01/30 00:23:52;;;;;;;11.20;7.60;;;;;;;-2.52;67.78;99682.52;108657;1260;70698;-71
2023/01/30 00:26:20;;;;;;;11.30;7.20;;;;;;;-2.51;67.86;99675.35;108591;1254;60496;-71
2023/01/30 00:28:50;;;;;;;12.80;7.80;;;;;;;-2.51;67.80;99677.08;108470;1258;59995;-73
2023/01/30 00:31:22;;;;;;;10.40;7.50;;;;;;;-2.52;67.77;99666.92;108240;1254;71605;-69
2023/01/30 00:33:50;;;;;;;10.70;6.60;;;;;;;-2.50;67.71;99669.90;108617;1254;70422;-72
2023/01/30 00:36:19;;;;;;;9.00;6.20;;;;;;;-2.50;67.72;99669.21;108287;1259;71410;-71
2023/01/30 00:38:47;;;;;;;9.70;6.10;;;;;;;-2.50;67.69;99662.61;107578;1260;60468;-74
2023/01/30 00:41:16;;;;;;;8.90;5.30;;;;;;;-2.51;67.71;99660.63;107683;1254;60394;-74
2023/01/30 00:49:19;;;;;;;8.10;5.60;;;;;;;-2.55;67.96;99653.56;108064;1254;72617;-73
2023/01/30 00:51:48;;;;;;;7.80;5.60;;;;;;;-2.55;68.03;99653.88;105912;1260;60530;-74
2023/01/30 00:54:17;;;;;;;8.80;5.80;;;;;;;-2.55;67.95;99649.73;105826;1260;60532;-74
2023/01/30 00:56:45;;;;;;;9.00;6.40;;;;;;;-2.57;67.88;99646.38;105681;1257;73634;-72
2023/01/30 00:59:12;;;;;;;10.90;6.10;;;;;;;-2.60;68.08;99645.84;105812;1257;69842;-76
2023/01/30 01:01:41;;;;;;;14.20;7.20;;;;;;;-2.62;68.10;99637.81;105726;1259;72215;-72
2023/01/30 01:04:09;;;;;;;9.30;6.00;;;;;;;-2.63;68.41;99629.91;105734;1257;60432;-74
2023/01/30 01:06:42;;;;;;;10.00;5.80;;;;;;;-2.64;68.46;99630.98;105830;1254;61174;-74
2023/01/30 01:09:10;;;;;;;10.60;7.00;;;;;;;-2.65;68.50;99627.57;105632;1254;73912;-73
2023/01/30 01:11:40;;;;;;;8.30;5.90;;;;;;;-2.67;68.81;99625.93;105799;1258;69942;-74
2023/01/30 01:14:08;;;;;;;10.30;5.50;;;;;;;-2.59;68.73;99614.24;105533;1264;70969;-71
2023/01/30 01:16:36;;;;;;;10.30;5.70;;;;;;;-2.52;68.81;99611.95;105717;1254;60627;-71
2023/01/30 01:19:04;;;;;;;9.40;6.00;;;;;;;-2.56;68.90;99609.36;105833;1258;60538;-71
2023/01/30 01:21:34;;;;;;;8.40;5.90;;;;;;;-2.60;69.07;99608.21;105776;1258;75031;-72
2023/01/30 01:24:05;;;;;;;9.60;5.60;;;;;;;-2.63;69.24;99610.81;105661;1254;69489;-74
2023/01/30 01:26:34;;;;;;;8.50;5.90;;;;;;;-2.65;69.35;99604.31;105721;1257;73950;-72
2023/01/30 01:29:02;;;;;;;8.10;5.40;;;;;;;-2.68;69.66;99600.86;105844;1254;60461;-74
2023/01/30 01:31:31;;;;;;;9.60;5.60;;;;;;;-2.69;69.64;99596.29;105852;1254;61191;-73
2023/01/30 01:34:00;;;;;;;9.10;5.70;;;;;;;-2.71;69.83;99589.23;105659;1254;74777;-72
2023/01/30 01:36:28;;;;;;;9.90;5.90;;;;;;;-2.72;70.18;99598.01;105856;1254;70362;-75
2023/01/30 01:39:16;;;;;;;8.40;5.40;;;;;;;-2.62;70.19;99600.02;105882;1260;73605;-71
2023/01/30 01:41:44;;;;;;;7.60;5.10;;;;;;;-2.56;70.09;99598.96;105735;1255;60711;-71
2023/01/30 01:44:12;;;;;;;9.60;6.20;;;;;;;-2.60;70.16;99595.58;105472;1254;60484;-72
2023/01/30 01:46:49;;;;;;;8.80;5.50;;;;;;;-2.63;70.35;99598.48;106045;1257;74781;-71
2023/01/30 01:49:20;;;;;;;10.60;5.90;;;;;;;-2.65;70.39;99600.16;105735;1255;71615;-69
2023/01/30 01:52:12;;;;;;;9.30;6.00;;;;;;;-2.66;70.45;99602.85;105287;1259;72015;-72
2023/01/30 01:55:08;;;;;;;12.30;6.00;;;;;;;-2.68;70.57;99601.58;105574;1254;60585;-71
2023/01/30 01:57:50;;;;;;;6.90;4.90;;;;;;;-2.69;70.56;99599.92;105769;1255;60945;-72
2023/01/30 02:00:19;;;;;;;7.00;4.60;;;;;;;-2.70;70.66;99597.02;105699;1254;71479;-72
2023/01/30 02:02:56;;;;;;;6.50;4.50;;;;;;;-2.59;70.44;99593.79;105627;1265;69329;-70
2023/01/30 02:05:28;;;;;;;8.50;5.10;;;;;;;-2.51;70.31;99587.41;105804;1258;70814;-70
2023/01/30 02:08:01;;;;;;;;;;;;;;;-2.54;70.38;99586.70;105499;1254;60955;-71
2023/01/30 02:11:17;;;;;;;6.70;4.60;;;;;;;-2.57;70.46;99585.35;105475;1254;61062;-72
2023/01/30 02:13:46;;;;;;;6.80;4.20;;;;;;;-2.61;70.40;99586.06;105200;1266;75217;-70
2023/01/30 02:16:13;;;;;;;7.10;5.10;;;;;;;-2.62;70.47;99576.23;105145;1260;68599;-74
2023/01/30 02:18:42;;;;;;;8.60;4.90;;;;;;;-2.62;70.44;99571.94;105568;1254;73616;-71
2023/01/30 02:21:38;;;;;;;8.10;5.00;;;;;;;-2.63;70.38;99573.37;105533;1256;60544;-72
2023/01/30 02:24:09;;;;;;;7.40;4.70;;;;;;;-2.64;70.37;99568.56;105501;1253;61587;-71
2023/01/30 02:27:02;;;;;;;8.20;4.50;;;;;;;-2.59;70.40;99557.71;105796;1260;75077;-72
2023/01/30 02:29:47;;;;;;;7.40;4.70;;;;;;;-2.43;70.22;99555.23;105366;1254;69003;-69
2023/01/30 02:32:15;;;;;;;7.20;4.80;;;;;;;-2.46;70.02;99550.52;105444;1257;73593;-70
2023/01/30 02:34:54;;;;;;;8.20;4.90;;;;;;;-2.49;70.16;99548.79;105691;1261;60462;-71
2023/01/30 02:37:46;;;;;;;6.70;4.50;;;;;;;-2.50;70.19;99542.09;105477;1254;60538;-72
2023/01/30 02:40:29;;;;;;;6.90;5.10;;;;;;;-2.52;70.30;99537.02;105762;1260;73331;-73
2023/01/30 02:43:38;;;;;;;8.60;5.40;;;;;;;-2.53;70.38;99533.64;105657;1261;71230;-74
2023/01/30 02:46:10;;;;;;;8.90;5.70;;;;;;;-2.55;70.27;99531.65;105819;1258;72664;-75
2023/01/30 02:49:01;;;;;;;10.90;6.30;;;;;;;-2.56;70.40;99534.30;105598;1259;61612;-70
2023/01/30 02:51:31;;;;;;;8.00;5.70;;;;;;;-2.59;70.32;99525.63;105429;1260;60328;-71
2023/01/30 02:53:59;;;;;;;9.00;5.30;;;;;;;-2.49;70.44;99519.15;105729;1254;73653;-70
2023/01/30 02:56:28;;;;;;;9.50;5.40;;;;;;;-2.35;70.37;99521.47;105604;1258;69897;-70
2023/01/30 02:58:58;;;;;;;7.10;5.10;;;;;;;-2.35;70.34;99523.02;105539;1254;72008;-69
2023/01/30 03:01:40;;;;;;;7.70;5.00;;;;;;;-2.38;70.08;99522.30;105552;1258;60419;-76
2023/01/30 03:04:34;;;;;;;7.50;4.90;;;;;;;-2.40;70.07;99514.81;105772;1260;61584;-71
2023/01/30 03:07:24;;;;;;;8.50;5.60;;;;;;;-2.45;70.21;99514.74;105712;1259;72046;-76
2023/01/30 03:10:28;;;;;;;8.80;5.00;;;;;;;-2.49;70.44;99513.27;105814;1255;69607;-71
2023/01/30 03:13:11;;;;;;;8.30;6.20;;;;;;;-2.54;70.79;99505.58;105393;1254;73885;-72
2023/01/30 03:15:58;;;;;;;10.00;5.90;;;;;;;-2.54;70.88;99501.91;105302;1254;62891;-71
2023/01/30 03:18:27;;;;;;;7.60;5.20;;;;;;;-2.41;70.88;99505.52;105566;1254;60537;-71
2023/01/30 03:20:55;;;;;;;9.40;6.00;;;;;;;-2.42;70.96;99498.27;105446;1254;74235;-74
2023/01/30 03:23:24;;;;;;;8.60;5.40;;;;;;;-2.44;70.80;99496.17;105432;1254;71255;-72
2023/01/30 03:25:52;;;;;;;8.80;5.60;;;;;;;-2.46;70.85;99496.59;105576;1254;73887;-70
2023/01/30 03:28:20;;;;;;;9.70;6.00;;;;;;;-2.51;71.03;99496.88;105318;1254;60489;-69
2023/01/30 03:30:49;;;;;;;7.80;5.70;;;;;;;-2.53;71.09;99492.17;105483;1256;61218;-73
2023/01/30 03:33:18;;;;;;;10.60;6.30;;;;;;;-2.54;71.27;99491.17;105526;1256;73888;-70
2023/01/30 03:35:49;;;;;;;10.60;6.50;;;;;;;-2.51;71.24;99492.56;105387;1255;70303;-71
2023/01/30 03:38:18;;;;;;;8.20;5.80;;;;;;;-2.38;71.07;99492.13;105469;1254;73208;-69
2023/01/30 03:40:46;;;;;;;11.00;5.80;;;;;;;-2.39;70.95;99494.25;105320;1260;60380;-69
2023/01/30 03:43:15;;;;;;;10.10;6.30;;;;;;;-2.43;71.23;99497.13;105507;1256;61449;-69
2023/01/30 03:45:46;;;;;;;9.40;5.50;;;;;;;-2.49;71.37;99493.82;105277;1257;74180;-74
2023/01/30 03:48:14;;;;;;;9.60;5.90;;;;;;;-2.52;71.55;99490.56;105567;1260;70446;-72
2023/01/30 03:50:42;;;;;;;8.60;6.10;;;;;;;-2.57;71.71;99483.70;105903;1254;71388;-71
2023/01/30 03:53:13;;;;;;;9.10;5.80;;;;;;;-2.60;71.95;99482.11;105313;1255;60812;-69
2023/01/30 03:55:45;;;;;;;8.40;5.90;;;;;;;-2.54;71.96;99477.10;105355;1254;60524;-69
2023/01/30 03:58:13;;;;;;;8.80;6.00;;;;;;;-2.45;71.98;99473.83;105372;1254;73005;-73
2023/01/30 04:00:41;;;;;;;9.30;6.40;;;;;;;-2.47;72.10;99472.05;105657;1254;69696;-73
2023/01/30 04:03:09;;;;;;;12.30;7.60;;;;;;;-2.50;72.39;99470.50;105381;1260;72885;-73
2023/01/30 04:05:38;;;;;;;13.20;8.10;;;;;;;-2.54;72.50;99465.14;105428;1257;60587;-73
2023/01/30 04:08:09;;;;;;;11.90;7.20;;;;;;;-2.58;72.97;99464.68;105412;1256;60488;-72
2023/01/30 04:10:37;;;;;;;10.90;7.60;;;;;;;-2.55;73.11;99458.65;105539;1262;74396;-73
2023/01/30 04:13:05;;;;;;;12.00;7.90;;;;;;;-2.44;73.15;99461.60;105693;1256;70598;-70
2023/01/30 04:15:34;;;;;;;13.80;8.30;;;;;;;-2.45;73.30;99464.13;105488;1256;73969;-73
2023/01/30 04:18:32;;;;;;;15.70;9.80;;;;;;;-2.50;73.42;99461.14;105475;1263;60697;-70
2023/01/30 04:21:08;;;;;;;12.70;8.50;;;;;;;-2.54;73.79;99457.70;105845;1257;60446;-74
2023/01/30 04:23:38;;;;;;;11.00;8.00;;;;;;;-2.56;74.16;99466.31;105387;1260;74547;-74
2023/01/30 04:26:07;;;;;;;12.00;8.00;;;;;;;-2.52;74.32;99460.70;105447;1257;71090;-71
2023/01/30 04:28:37;;;;;;;10.80;8.70;;;;;;;-2.41;74.50;99461.60;105709;1257;73616;-72
2023/01/30 04:31:05;;;;;;;12.80;8.90;;;;;;;-2.40;74.37;99456.51;105796;1256;60439;-75
2023/01/30 04:34:02;;;;;;;14.20;9.10;;;;;;;-2.46;74.65;99458.09;105544;1256;60529;-74
2023/01/30 04:36:31;;;;;;;12.70;9.50;;;;;;;-2.50;74.89;99457.64;105737;1260;74853;-73
2023/01/30 04:38:59;;;;;;;14.10;10.00;;;;;;;-2.53;75.13;99460.27;105608;1260;68835;-74
2023/01/30 04:41:27;;;;;;;14.60;10.10;;;;;;;-2.54;75.15;99455.95;105731;1258;73864;-73
2023/01/30 04:43:57;;;;;;;13.00;9.20;;;;;;;-2.42;75.29;99454.70;105807;1254;61228;-75
2023/01/30 04:46:33;;;;;;;12.90;9.80;;;;;;;-2.36;75.20;99446.06;105892;1255;60912;-77
2023/01/30 04:49:03;;;;;;;14.90;10.40;;;;;;;-2.43;75.34;99444.19;106046;1260;74004;-73
2023/01/30 04:51:32;;;;;;;15.30;11.40;;;;;;;-2.48;75.74;99443.10;105826;1256;71193;-73
2023/01/30 04:54:00;;;;;;;14.60;10.70;;;;;;;-2.51;75.83;99437.61;105743;1260;73626;-73
2023/01/30 04:56:29;;;;;;;18.90;11.90;;;;;;;-2.54;76.17;99436.91;105466;1260;60546;-74
2023/01/30 04:58:57;;;;;;;17.50;11.40;;;;;;;-2.46;76.28;99435.88;105676;1255;60913;-72
2023/01/30 05:01:32;;;;;;;15.20;10.00;;;;;;;-2.39;76.24;99427.85;105851;1256;74101;-76
2023/01/30 05:04:01;;;;;;;15.70;11.50;;;;;;;-2.43;76.24;99424.60;105914;1253;71332;-76
2023/01/30 05:06:29;;;;;;;16.50;11.00;;;;;;;-2.46;76.53;99415.08;106858;1255;73932;-77
2023/01/30 05:08:58;;;;;;;18.00;10.70;;;;;;;-2.48;76.57;99418.69;106583;1255;60536;-77
2023/01/30 05:11:27;;;;;;;14.90;9.90;;;;;;;-2.46;76.84;99409.51;106964;1255;60300;-79
2023/01/30 05:13:55;;;;;;;15.00;10.80;;;;;;;-2.34;76.59;99412.13;108587;1255;71418;-77
2023/01/30 05:16:24;;;;;;;16.20;11.20;;;;;;;-2.35;76.64;99408.86;107630;1256;70252;-68
2023/01/30 05:18:52;;;;;;;15.50;11.70;;;;;;;-2.39;76.87;99409.63;106569;1256;73444;-68
2023/01/30 05:21:25;;;;;;;17.70;11.40;;;;;;;-2.43;76.82;99404.66;106736;1256;60365;-69
2023/01/30 05:23:54;;;;;;;15.40;10.80;;;;;;;-2.44;77.12;99407.69;106701;1258;60821;-67
2023/01/30 05:26:22;;;;;;;18.90;11.20;;;;;;;-2.35;77.04;99410.41;106762;1255;74045;-70
2023/01/30 05:28:55;;;;;;;19.70;11.70;;;;;;;-2.33;77.13;99407.18;108105;1257;69196;-69
2023/01/30 05:31:24;;;;;;;14.50;10.20;;;;;;;-2.39;77.24;99401.96;108653;1255;72545;-71
2023/01/30 05:33:53;;;;;;;15.60;10.90;;;;;;;-2.42;77.34;99402.70;108817;1255;58697;-73
2023/01/30 05:36:22;;;;;;;15.60;10.60;;;;;;;-2.41;77.41;99397.97;108763;1255;58429;-72
2023/01/30 05:38:50;;;;;;;15.80;10.90;;;;;;;-2.28;77.32;99389.90;108766;1255;72787;-72
2023/01/30 05:41:19;;;;;;;16.70;10.70;;;;;;;-2.25;77.04;99383.93;108636;1255;68627;-73
2023/01/30 05:43:50;;;;;;;15.70;11.60;;;;;;;-2.28;77.13;99377.42;108366;1255;71366;-73
2023/01/30 05:46:19;;;;;;;14.80;11.30;;;;;;;-2.34;77.22;99372.54;108455;1255;60647;-75
2023/01/30 05:48:47;;;;;;;18.20;12.50;;;;;;;-2.34;77.31;99374.80;106541;1256;60625;-70
2023/01/30 05:51:20;;;;;;;15.80;11.00;;;;;;;-2.25;76.93;99372.20;105469;1257;75446;-72
2023/01/30 05:53:51;;;;;;;20.60;12.80;;;;;;;-2.19;76.75;99373.19;105610;1260;70085;-72
2023/01/30 05:56:19;;;;;;;17.60;13.10;;;;;;;-2.25;76.73;99370.77;105727;1255;73609;-73
2023/01/30 05:58:56;;;;;;;17.10;13.40;;;;;;;-2.30;76.85;99373.17;105583;1255;60591;-70
2023/01/30 06:01:25;;;;;;;22.60;12.50;;;;;;;-2.34;76.94;99371.33;105511;1256;60458;-74
2023/01/30 06:03:53;;;;;;;20.30;11.60;;;;;;;-2.32;77.02;99370.89;105632;1258;74719;-73
2023/01/30 06:06:21;;;;;;;16.00;11.20;;;;;;;-2.25;76.92;99359.30;105532;1254;71554;-71
2023/01/30 06:08:54;;;;;;;17.90;12.60;;;;;;;-2.26;77.09;99361.64;105570;1260;73878;-72
2023/01/30 06:11:22;;;;;;;13.60;9.70;;;;;;;-2.32;77.12;99366.18;105485;1254;60483;-69
2023/01/30 06:13:51;;;;;;;15.80;10.40;;;;;;;-2.35;77.32;99355.81;105632;1254;61286;-71
2023/01/30 06:16:19;;;;;;;17.20;11.40;;;;;;;-2.27;77.30;99353.17;105265;1257;75085;-73
2023/01/30 06:18:47;;;;;;;17.10;11.50;;;;;;;-2.24;77.24;99357.33;105512;1260;71564;-71
2023/01/30 06:21:15;;;;;;;17.60;10.60;;;;;;;-2.28;77.26;99359.51;105564;1257;71093;-73
2023/01/30 06:23:43;;;;;;;14.30;10.30;;;;;;;-2.34;77.46;99359.19;105871;1258;60439;-73
2023/01/30 06:26:12;;;;;;;14.80;10.30;;;;;;;-2.33;77.64;99357.75;105746;1254;61364;-72
2023/01/30 06:28:40;;;;;;;17.70;11.00;;;;;;;-2.23;77.50;99343.39;105396;1255;74545;-72
2023/01/30 06:31:10;;;;;;;19.10;11.60;;;;;;;-2.21;77.58;99354.05;105425;1254;71046;-72
2023/01/30 06:33:38;;;;;;;19.60;11.70;;;;;;;-2.24;77.50;99350.96;105831;1254;72657;-71
2023/01/30 06:36:07;;;;;;;15.80;10.60;;;;;;;-2.30;77.68;99354.78;105403;1256;60679;-72
2023/01/30 06:38:36;;;;;;;14.00;9.60;;;;;;;-2.29;77.77;99345.15;105634;1254;60509;-72
2023/01/30 06:41:04;;;;;;;18.80;11.00;;;;;;;-2.20;77.67;99348.95;105744;1254;72897;-72
2023/01/30 06:43:32;;;;;;;19.50;12.40;;;;;;;-2.24;77.63;99338.10;105709;1258;68262;-73
2023/01/30 06:46:00;;;;;;;17.70;11.90;;;;;;;-2.29;77.72;99336.52;105730;1254;70838;-73
2023/01/30 06:48:29;;;;;;;21.40;11.20;;;;;;;-2.30;77.91;99336.06;105757;1254;61192;-73
2023/01/30 06:50:57;;;;;;;18.60;11.00;;;;;;;-2.18;77.93;99334.80;105636;1254;60866;-71
2023/01/30 06:53:29;;;;;;;21.10;13.50;;;;;;;-2.15;77.70;99338.73;105453;1254;74997;-71
2023/01/30 06:56:00;;;;;;;26.20;17.40;;;;;;;-2.20;77.78;99334.88;105640;1255;71207;-73
2023/01/30 06:58:28;;;;;;;20.50;13.00;;;;;;;-2.24;78.00;99334.84;105506;1257;73562;-74
2023/01/30 07:01:01;;;;;;;19.20;10.80;;;;;;;-2.19;78.11;99337.42;105837;1255;62119;-71
2023/01/30 07:03:29;;;;;;;18.40;12.50;;;;;;;-2.14;77.86;99329.70;105401;1256;60422;-73
2023/01/30 07:05:57;;;;;;;20.70;13.00;;;;;;;-2.19;77.95;99335.52;105703;1254;71423;-73
2023/01/30 07:08:25;;;;;;;18.80;12.10;;;;;;;-2.26;78.20;99338.02;105595;1254;69895;-73
2023/01/30 07:10:53;;;;;;;17.10;10.30;;;;;;;-2.19;78.25;99334.50;105730;1256;72779;-71
2023/01/30 07:13:22;;;;;;;21.30;14.70;;;;;;;-2.14;78.13;99329.52;105739;1254;60433;-69
2023/01/30 07:15:50;;;;;;;28.70;15.40;;;;;;;-2.21;78.35;99336.14;105474;1260;60541;-73
2023/01/30 07:18:20;;;;;;;19.20;10.80;;;;;;;-2.27;78.45;99341.42;105577;1254;73214;-71
2023/01/30 07:20:49;;;;;;;17.40;11.70;;;;;;;-2.25;78.66;99333.16;105730;1254;71928;-70
2023/01/30 07:23:17;;;;;;;19.40;12.90;;;;;;;-2.16;78.59;99326.81;105629;1256;71361;-71
2023/01/30 07:25:46;;;;;;;17.80;12.70;;;;;;;-2.16;78.54;99325.13;105672;1255;60474;-80
2023/01/30 07:28:14;;;;;;;15.90;11.20;;;;;;;-2.21;78.68;99323.52;105701;1258;61298;-78
2023/01/30 07:30:42;;;;;;;17.50;10.80;;;;;;;-2.22;78.89;99313.88;105885;1255;74808;-72
2023/01/30 07:33:11;;;;;;;21.50;11.90;;;;;;;-2.13;78.82;99310.89;105653;1260;68836;-73
2023/01/30 07:35:38;;;;;;;19.50;11.60;;;;;;;-2.12;78.67;99300.77;105804;1255;71390;-73
2023/01/30 07:38:07;;;;;;;18.40;11.70;;;;;;;-2.19;79.01;99301.55;105804;1256;60644;-73
2023/01/30 07:40:35;;;;;;;19.50;10.90;;;;;;;-2.23;79.24;99297.63;105540;1260;61512;-73
2023/01/30 07:43:05;;;;;;;16.50;10.30;;;;;;;-2.14;79.19;99298.41;105703;1254;74893;-73
2023/01/30 07:45:37;;;;;;;19.00;11.70;;;;;;;-2.09;78.96;99286.51;105822;1257;69532;-74
2023/01/30 07:48:05;;;;;;;20.60;13.70;;;;;;;-2.13;79.27;99285.55;105659;1254;73739;-74
2023/01/30 07:50:35;;;;;;;21.40;14.00;;;;;;;-2.16;79.49;99288.33;105499;1254;60485;-72
2023/01/30 07:53:04;;;;;;;19.50;11.00;;;;;;;-2.14;79.40;99279.66;105627;1254;61532;-75
2023/01/30 07:55:32;;;;;;;19.30;13.20;;;;;;;-2.03;79.17;99273.80;105824;1258;73726;-75
2023/01/30 07:58:01;;;;;;;20.00;12.20;;;;;;;-2.06;79.23;99282.13;105723;1258;71316;-74
2023/01/30 08:00:29;;;;;;;20.80;12.20;;;;;;;-2.08;79.27;99273.45;105749;1256;72606;-75
2023/01/30 08:03:01;;;;;;;19.90;12.30;;;;;;;-2.00;79.15;99272.72;105590;1254;60743;-76
2023/01/30 08:05:29;;;;;;;18.50;13.10;;;;;;;-2.00;79.04;99259.36;105666;1254;60517;-75
2023/01/30 08:07:59;;;;;;;19.30;13.20;;;;;;;-2.05;79.26;99257.58;105542;1261;74526;-73
2023/01/30 08:10:31;;;;;;;17.80;13.20;;;;;;;-2.03;79.31;99253.64;105696;1258;68194;-74
2023/01/30 08:13:00;;;;;;;20.90;14.00;;;;;;;-1.89;79.20;99245.27;105666;1260;71745;-73
2023/01/30 08:15:30;;;;;;;19.40;13.00;;;;;;;-1.84;78.87;99248.06;105428;1254;184611;-73
2023/01/30 08:19:51;;;;;;;18.40;12.50;;;;;;;-1.86;78.79;99240.58;103417;1288;601483;-74
2023/01/30 08:22:20;;;;;;;21.00;13.20;;;;;;;-1.88;78.78;99240.67;105195;1266;61968;-75
2023/01/30 08:24:50;;;;;;;20.60;13.20;;;;;;;-1.77;78.58;99230.23;105013;1266;61324;-75
2023/01/30 08:27:18;;;;;;;17.80;13.50;;;;;;;-1.73;78.40;99226.37;104998;1270;72051;-73
2023/01/30 08:29:47;;;;;;;17.40;12.90;;;;;;;-1.80;78.36;99226.09;105479;1259;71409;-73
2023/01/30 08:32:17;;;;;;;17.30;11.80;;;;;;;-1.84;78.44;99232.95;105438;1258;73901;-73
2023/01/30 08:34:45;;;;;;;19.30;12.80;;;;;;;-1.79;78.42;99220.35;105434;1258;61068;-73
2023/01/30 08:37:13;;;;;;;17.40;12.70;;;;;;;-1.70;78.35;99218.35;105699;1255;59627;-73
2023/01/30 08:39:42;;;;;;;18.40;12.30;;;;;;;-1.72;78.21;99211.16;105690;1253;73515;-73
2023/01/30 08:42:11;;;;;;;18.80;12.50;;;;;;;-1.76;78.18;99215.80;105563;1254;71250;-72
2023/01/30 08:44:40;;;;;;;15.70;11.80;;;;;;;-1.73;78.08;99209.00;105684;1259;71991;-73
2023/01/30 08:47:08;;;;;;;16.00;10.40;;;;;;;-1.64;77.60;99196.02;105733;1259;59554;-73
2023/01/30 08:49:36;;;;;;;16.10;11.50;;;;;;;-1.65;77.55;99196.09;105449;1258;60045;-75
2023/01/30 08:52:04;;;;;;;19.00;12.00;;;;;;;-1.70;77.74;99199.04;105530;1262;73400;-76
2023/01/30 08:54:33;;;;;;;18.80;12.10;;;;;;;-1.72;78.08;99196.23;105571;1260;68623;-73
2023/01/30 08:57:01;;;;;;;18.20;11.00;;;;;;;-1.63;77.75;99194.73;105678;1257;70826;-74
2023/01/30 08:59:29;;;;;;;21.00;12.00;;;;;;;-1.56;77.41;99194.08;105686;1256;61077;-75
2023/01/30 09:01:58;;;;;;;16.50;11.50;;;;;;;-1.59;77.40;99185.48;105686;1254;60500;-75
2023/01/30 09:04:28;;;;;;;15.30;7.10;;;;;;;-1.64;76.93;99206.27;105647;1261;72854;-73
2023/01/30 09:06:56;;;;;;;11.90;8.00;;;;;;;-1.62;76.64;99191.05;105787;1256;70074;-76
2023/01/30 09:09:25;;;;;;;10.10;6.50;;;;;;;-1.55;76.12;99176.32;105849;1256;73842;-76
2023/01/30 09:11:53;;;;;;;9.40;6.60;;;;;;;-1.61;75.59;99177.92;105529;1262;59806;-74
2023/01/30 09:14:22;;;;;;;11.00;7.50;;;;;;;-1.67;75.96;99169.13;105917;1256;61679;-75
2023/01/30 09:16:56;;;;;;;12.50;7.30;;;;;;;-1.70;76.49;99165.02;105605;1260;74074;-75
2023/01/30 09:19:25;;;;;;;13.40;9.70;;;;;;;-1.65;76.65;99164.48;105499;1256;70333;-73
2023/01/30 09:21:54;;;;;;;16.30;9.70;;;;;;;-1.59;76.64;99158.52;105627;1260;73888;-75
2023/01/30 09:24:26;;;;;;;17.50;9.30;;;;;;;-1.63;76.98;99147.86;105629;1256;60822;-75
2023/01/30 09:26:58;;;;;;;16.50;8.90;;;;;;;-1.72;78.01;99154.04;105612;1260;59657;-73
2023/01/30 09:29:29;;;;;;;15.60;8.50;;;;;;;-1.70;78.53;99136.38;105615;1258;73234;-75
2023/01/30 09:31:58;;;;;;;13.30;8.20;;;;;;;-1.70;78.46;99148.91;105636;1256;71338;-74
2023/01/30 09:34:27;;;;;;;13.00;8.20;;;;;;;-1.81;78.65;99146.36;105536;1256;72958;-74
2023/01/30 09:36:59;;;;;;;13.40;8.70;;;;;;;-1.90;78.63;99139.30;105495;1256;60151;-72
2023/01/30 09:39:27;;;;;;;13.40;8.70;;;;;;;-1.84;78.30;99125.86;105640;1256;59745;-75
2023/01/30 09:42:14;;;;;;;16.90;10.60;;;;;;;-1.87;78.18;99124.12;105489;1258;72395;-73
2023/01/30 09:45:11;;;;;;;16.50;9.40;;;;;;;-1.94;78.58;99109.04;105623;1256;69442;-73
2023/01/30 09:47:56;;;;;;;16.60;8.90;;;;;;;-1.95;78.69;99131.14;105593;1256;72672;-73
2023/01/30 09:51:04;;;;;;;18.00;11.00;;;;;;;-1.92;78.85;99120.16;105565;1256;60851;-72
2023/01/30 09:53:38;;;;;;;17.70;11.20;;;;;;;-2.02;79.26;99114.21;105554;1256;61336;-72
2023/01/30 09:56:06;;;;;;;15.10;11.40;;;;;;;-2.00;79.22;99113.36;105541;1256;73675;-73
2023/01/30 09:58:44;;;;;;;17.00;11.80;;;;;;;-1.93;79.16;99098.02;105791;1256;70341;-75
2023/01/30 10:01:36;;;;;;;18.10;11.00;;;;;;;-1.97;79.20;99103.84;105623;1258;73426;-72
2023/01/30 10:04:22;;;;;;;15.20;10.90;;;;;;;-2.03;79.51;99092.06;108422;1256;59618;-74
2023/01/30 10:06:58;;;;;;;17.30;11.40;;;;;;;-1.94;79.36;99092.69;106671;1256;59750;-74
2023/01/30 10:09:51;;;;;;;19.30;12.50;;;;;;;-1.90;78.90;99092.44;105892;1256;74253;-73
2023/01/30 10:13:02;;;;;;;20.40;10.80;;;;;;;-1.96;79.26;99081.03;108417;1256;70495;-74
2023/01/30 10:15:45;;;;;;;18.20;10.80;;;;;;;-1.94;79.08;99059.17;108782;1256;72493;-74
2023/01/30 10:18:19;;;;;;;15.40;9.50;;;;;;;-1.81;78.89;99062.27;108658;1256;58518;-74
2023/01/30 10:20:51;;;;;;;18.50;11.70;;;;;;;-1.82;78.48;99055.75;108708;1260;59428;-73
2023/01/30 10:23:40;;;;;;;16.50;9.50;;;;;;;-1.87;78.77;99049.66;108619;1255;73081;-73
2023/01/30 10:26:11;;;;;;;16.40;10.30;;;;;;;-1.77;78.62;99047.08;108503;1256;69351;-73
2023/01/30 10:28:46;;;;;;;15.80;11.00;;;;;;;-1.70;78.33;99033.92;108116;1256;71688;-73
2023/01/30 10:31:29;;;;;;;15.90;10.00;;;;;;;-1.71;78.45;99031.38;108542;1256;59130;-73
2023/01/30 10:34:25;;;;;;;14.00;9.40;;;;;;;-1.70;78.31;99016.56;108311;1257;59494;-72
2023/01/30 10:36:59;;;;;;;17.30;10.80;;;;;;;-1.57;77.90;99012.14;108380;1256;72723;-72
2023/01/30 10:39:46;;;;;;;18.30;12.10;;;;;;;-1.48;77.86;99008.42;108329;1254;67829;-72
2023/01/30 10:42:44;;;;;;;16.30;11.60;;;;;;;-1.48;77.75;99000.23;107351;1256;72809;-73
2023/01/30 10:45:15;;;;;;;15.40;10.10;;;;;;;-1.49;77.68;98995.96;105857;1256;59606;-73
2023/01/30 10:47:48;;;;;;;14.20;9.50;;;;;;;-1.53;77.55;98986.36;105907;1257;61192;-74
2023/01/30 10:50:26;;;;;;;;;;;;;;;-1.43;77.22;98982.35;105825;1255;74019;-73
2023/01/30 10:52:59;;;;;;;17.10;10.30;;;;;;;-1.44;77.39;98974.08;105739;1255;69609;-73
2023/01/30 10:55:34;;;;;;;16.10;11.60;;;;;;;-1.49;77.51;98976.20;105878;1254;73729;-73
2023/01/30 10:58:15;;;;;;;15.60;10.50;;;;;;;-1.55;77.57;98967.73;105779;1254;61247;-74
2023/01/30 11:00:51;;;;;;;15.80;10.40;;;;;;;-1.46;77.45;98971.42;105677;1259;60009;-73
2023/01/30 11:03:29;;;;;;;16.50;11.90;;;;;;;-1.44;77.46;98964.71;105720;1258;71666;-74
2023/01/30 11:06:04;;;;;;;17.70;10.90;;;;;;;-1.49;77.54;98958.31;105779;1255;69473;-73
2023/01/30 11:08:34;;;;;;;15.60;10.30;;;;;;;-1.53;77.76;98951.31;105666;1261;73637;-72
2023/01/30 11:11:22;;;;;;;21.10;11.20;;;;;;;-1.46;77.58;98941.52;105698;1254;59944;-73
2023/01/30 11:14:08;;;;;;;16.80;10.70;;;;;;;-1.40;77.47;98944.39;105747;1256;60014;-73
2023/01/30 11:16:42;;;;;;;20.40;12.70;;;;;;;-1.42;77.56;98932.60;105857;1254;73288;-73
2023/01/30 11:19:11;;;;;;;18.30;12.20;;;;;;;-1.46;77.69;98924.05;105839;1256;69070;-74
2023/01/30 11:21:50;;;;;;;18.50;12.50;;;;;;;-1.44;77.78;98915.73;105820;1256;72664;-73
2023/01/30 11:24:27;;;;;;;19.20;13.00;;;;;;;-1.33;77.31;98913.86;105740;1256;60571;-74
2023/01/30 11:27:11;;;;;;;16.60;10.90;;;;;;;-1.32;77.13;98916.40;105717;1256;61471;-74
2023/01/30 11:29:39;;;;;;;14.40;10.20;;;;;;;-1.36;77.04;98910.80;105798;1258;74131;-73
2023/01/30 11:32:11;;;;;;;17.00;9.30;;;;;;;-1.38;77.18;98904.02;105489;1254;70904;-73
2023/01/30 11:34:41;;;;;;;16.00;10.40;;;;;;;-1.37;77.03;98901.84;105676;1256;72621;-72
2023/01/30 11:37:14;;;;;;;15.50;11.20;;;;;;;-1.27;76.78;98889.81;105553;1254;59710;-73
2023/01/30 11:39:48;;;;;;;19.40;11.70;;;;;;;-1.27;76.81;98881.64;105517;1261;59621;-73
2023/01/30 11:42:16;;;;;;;18.70;10.60;;;;;;;-1.32;76.76;98877.64;105579;1258;73612;-73
2023/01/30 11:44:45;;;;;;;14.70;10.40;;;;;;;-1.31;76.94;98873.62;105587;1261;69719;-73
2023/01/30 11:47:20;;;;;;;18.50;11.30;;;;;;;-1.21;76.74;98869.91;105758;1258;73287;-73